Station Historical Data
Daily Summary for December 4, 2017 Units:  English    Metric   Both
« Previous Day
Next Day »
Daily Weekly Monthly Yearly Custom
  High: Low: Average:
Temperature: 64.9 °F 45.0 °F 54.6 °F
Dew Point: 50.5 °F 42.2 °F 46.8 °F
Humidity: 93% 53% 77%
Wind Speed: 8.1mph 0.0mph 1.5mph
Wind Gust: 8.1mph - -
Wind- - WNW
Pressure: 30.33 in 30.23 in -
Precipitation: 0.00 in    
Historical Graphs
 
 
Tabular Data for December 4, 2017
Time Temperature Dew Point Pressure Wind Wind Speed Wind Gust Humidity Rainfall Rate (Hourly) Conditions
00:04 47.9 °F 44.8 °F 30.25 in Calm     89% 0.00 in CLR
00:10 47.7 °F 44.6 °F 30.25 in Calm     89% 0.00 in CLR
00:15 47.7 °F 44.6 °F 30.25 in Calm     89% 0.00 in CLR
00:20 47.5 °F 44.4 °F 30.25 in Calm     89% 0.00 in CLR
00:25 47.3 °F 44.2 °F 30.25 in Calm     89% 0.00 in CLR
00:30 46.8 °F 43.4 °F 30.25 in Calm     88% 0.00 in CLR
00:35 46.7 °F 43.6 °F 30.25 in Calm     89% 0.00 in CLR
00:40 46.5 °F 43.4 °F 30.25 in Calm     89% 0.00 in CLR
00:45 46.3 °F 43.2 °F 30.25 in Calm     89% 0.00 in CLR
00:50 46.7 °F 44.2 °F 30.24 in Calm     91% 0.00 in CLR
00:55 46.9 °F 44.4 °F 30.25 in Calm     91% 0.00 in CLR
01:00 47.2 °F 44.7 °F 30.24 in Calm     91% 0.00 in CLR
01:05 47.1 °F 44.6 °F 30.24 in Calm     91% 0.00 in CLR
01:10 46.8 °F 44.0 °F 30.24 in Calm     90% 0.00 in CLR
01:15 46.1 °F 43.0 °F 30.24 in Calm     89% 0.00 in CLR
01:20 45.8 °F 42.7 °F 30.24 in Calm     89% 0.00 in CLR
01:26 45.6 °F 42.8 °F 30.24 in Calm     90% 0.00 in CLR
01:31 45.5 °F 42.7 °F 30.24 in Calm     90% 0.00 in CLR
01:36 45.6 °F 42.8 °F 30.24 in Calm     90% 0.00 in CLR
01:41 45.3 °F 42.5 °F 30.23 in Calm     90% 0.00 in CLR
01:46 45.0 °F 42.2 °F 30.23 in Calm     90% 0.00 in CLR
01:51 45.0 °F 42.5 °F 30.23 in Calm     91% 0.00 in CLR
01:56 45.7 °F 43.5 °F 30.24 in Calm     92% 0.00 in CLR
02:02 46.2 °F 44.3 °F 30.24 in Calm     93% 0.00 in CLR
02:07 46.5 °F 44.3 °F 30.24 in Calm     92% 0.00 in CLR
02:12 46.8 °F 44.9 °F 30.24 in Calm     93% 0.00 in CLR
02:17 47.1 °F 45.2 °F 30.24 in Calm     93% 0.00 in CLR
02:22 46.8 °F 44.6 °F 30.24 in Calm     92% 0.00 in CLR
02:27 46.5 °F 44.3 °F 30.24 in Calm     92% 0.00 in CLR
02:32 46.8 °F 44.9 °F 30.24 in Calm     93% 0.00 in CLR
02:37 46.9 °F 45.0 °F 30.24 in Calm     93% 0.00 in CLR
02:42 46.8 °F 44.6 °F 30.24 in Calm     92% 0.00 in CLR
02:47 46.9 °F 44.7 °F 30.25 in Calm     92% 0.00 in CLR
02:52 47.0 °F 45.1 °F 30.25 in Calm     93% 0.00 in CLR
02:57 46.9 °F 44.7 °F 30.25 in Calm     92% 0.00 in CLR
03:02 47.0 °F 45.1 °F 30.25 in Calm     93% 0.00 in CLR
03:07 47.1 °F 45.2 °F 30.25 in Calm     93% 0.00 in CLR
03:13 47.0 °F 45.1 °F 30.25 in Calm     93% 0.00 in CLR
03:18 47.0 °F 45.1 °F 30.25 in Calm     93% 0.00 in CLR
03:23 47.1 °F 45.2 °F 30.25 in Calm     93% 0.00 in CLR
03:28 47.0 °F 45.1 °F 30.26 in Calm     93% 0.00 in CLR
03:33 46.8 °F 44.9 °F 30.25 in Calm     93% 0.00 in CLR
03:38 46.7 °F 44.8 °F 30.26 in Calm     93% 0.00 in CLR
03:43 46.7 °F 44.8 °F 30.25 in Calm     93% 0.00 in CLR
03:48 47.0 °F 45.1 °F 30.25 in Calm     93% 0.00 in CLR
03:53 47.0 °F 45.1 °F 30.25 in Calm     93% 0.00 in CLR
03:58 47.1 °F 45.2 °F 30.25 in Calm     93% 0.00 in CLR
04:03 47.1 °F 45.2 °F 30.25 in Calm     93% 0.00 in CLR
04:08 46.9 °F 45.0 °F 30.25 in Calm     93% 0.00 in CLR
04:13 46.7 °F 44.8 °F 30.26 in Calm     93% 0.00 in CLR
04:18 46.6 °F 44.7 °F 30.25 in Calm     93% 0.00 in CLR
04:24 46.5 °F 44.6 °F 30.26 in Calm     93% 0.00 in CLR
04:29 46.4 °F 44.5 °F 30.26 in Calm     93% 0.00 in CLR
04:34 46.4 °F 44.5 °F 30.26 in Calm     93% 0.00 in CLR
04:39 46.4 °F 44.5 °F 30.26 in Calm     93% 0.00 in CLR
04:44 46.5 °F 44.6 °F 30.26 in Calm     93% 0.00 in CLR
04:49 46.6 °F 44.7 °F 30.26 in Calm     93% 0.00 in CLR
04:54 46.5 °F 44.6 °F 30.26 in Calm     93% 0.00 in CLR
04:59 46.4 °F 44.5 °F 30.26 in Calm     93% 0.00 in CLR
05:04 46.3 °F 44.4 °F 30.26 in Calm     93% 0.00 in CLR
05:09 46.3 °F 44.4 °F 30.26 in Calm     93% 0.00 in CLR
05:14 46.3 °F 44.4 °F 30.26 in Calm     93% 0.00 in CLR
05:19 46.3 °F 44.4 °F 30.26 in Calm     93% 0.00 in CLR
05:25 46.2 °F 44.3 °F 30.26 in Calm     93% 0.00 in CLR
05:30 46.1 °F 44.2 °F 30.26 in Calm     93% 0.00 in CLR
05:35 46.0 °F 44.1 °F 30.26 in Calm     93% 0.00 in CLR
05:40 46.0 °F 44.1 °F 30.26 in Calm     93% 0.00 in CLR
05:45 46.0 °F 44.1 °F 30.27 in Calm     93% 0.00 in CLR
05:50 46.0 °F 44.1 °F 30.27 in Calm     93% 0.00 in CLR
05:55 46.1 °F 44.2 °F 30.27 in Calm     93% 0.00 in CLR
06:00 46.2 °F 44.3 °F 30.27 in Calm     93% 0.00 in CLR
06:05 46.3 °F 44.4 °F 30.27 in Calm     93% 0.00 in CLR
06:11 46.3 °F 44.4 °F 30.28 in Calm     93% 0.00 in CLR
06:16 46.3 °F 44.4 °F 30.28 in Calm     93% 0.00 in CLR
06:21 46.3 °F 44.4 °F 30.28 in Calm     93% 0.00 in CLR
06:26 46.3 °F 44.4 °F 30.28 in Calm     93% 0.00 in CLR
06:31 46.2 °F 44.3 °F 30.28 in Calm     93% 0.00 in CLR
06:36 46.1 °F 44.2 °F 30.28 in Calm     93% 0.00 in CLR
06:41 46.1 °F 44.2 °F 30.28 in Calm     93% 0.00 in CLR
06:46 46.1 °F 44.2 °F 30.28 in Calm     93% 0.00 in CLR
06:51 46.1 °F 44.2 °F 30.29 in WNW 1.2 mph   93% 0.00 in CLR
06:56 46.1 °F 44.2 °F 30.29 in West 1.2 mph   93% 0.00 in CLR
07:01 46.0 °F 44.1 °F 30.29 in West 1.2 mph   93% 0.00 in BKN
07:06 45.9 °F 44.0 °F 30.29 in West 1.2 mph   93% 0.00 in BKN
07:11 45.9 °F 44.0 °F 30.29 in Calm     93% 0.00 in BKN
07:16 45.9 °F 44.0 °F 30.29 in Calm     93% 0.00 in BKN
07:22 45.8 °F 43.9 °F 30.30 in Calm     93% 0.00 in BKN
07:27 45.7 °F 43.8 °F 30.30 in Calm     93% 0.00 in BKN
07:32 45.7 °F 43.8 °F 30.30 in Calm     93% 0.00 in BKN
07:37 45.6 °F 43.7 °F 30.30 in Calm     93% 0.00 in BKN
07:42 45.6 °F 43.7 °F 30.30 in Calm     93% 0.00 in BKN
07:47 45.7 °F 43.8 °F 30.30 in Calm     93% 0.00 in BKN
07:52 45.9 °F 44.0 °F 30.30 in West 1.2 mph 1.2 mph 93% 0.00 in BKN
07:57 46.1 °F 44.2 °F 30.31 in West 1.2 mph   93% 0.00 in BKN
08:02 46.3 °F 44.4 °F 30.31 in West 1.2 mph   93% 0.00 in BKN
08:06 46.4 °F 44.5 °F 30.31 in West 1.2 mph 1.2 mph 93% 0.00 in BKN
08:11 46.6 °F 44.7 °F 30.32 in West 2.3 mph   93% 0.00 in BKN
08:16 46.7 °F 44.8 °F 30.31 in West 2.3 mph   93% 0.00 in BKN
08:21 46.9 °F 45.0 °F 30.32 in West 1.2 mph   93% 0.00 in BKN
08:26 47.2 °F 45.3 °F 30.32 in West 1.2 mph   93% 0.00 in BKN
08:31 47.4 °F 45.2 °F 30.32 in West 1.2 mph 1.2 mph 92% 0.00 in BKN
08:36 47.6 °F 45.4 °F 30.32 in West 2.3 mph   92% 0.00 in BKN
08:41 47.8 °F 45.6 °F 30.32 in West 2.3 mph 2.3 mph 92% 0.00 in BKN
08:46 48.2 °F 46.0 °F 30.32 in West 2.3 mph 2.3 mph 92% 0.00 in BKN
08:51 48.6 °F 46.1 °F 30.32 in West 2.3 mph 2.3 mph 91% 0.00 in BKN
08:56 49.1 °F 46.3 °F 30.31 in West 2.3 mph   90% 0.00 in BKN
09:02 49.5 °F 46.4 °F 30.31 in West 2.3 mph 2.3 mph 89% 0.00 in BKN
09:07 49.8 °F 46.4 °F 30.31 in West 2.3 mph 2.3 mph 88% 0.00 in BKN
09:12 50.0 °F 46.6 °F 30.32 in WNW 2.3 mph   88% 0.00 in BKN
09:17 50.2 °F 46.8 °F 30.32 in West 2.3 mph   88% 0.00 in BKN
09:22 50.4 °F 46.7 °F 30.32 in West 2.3 mph   87% 0.00 in BKN
09:27 50.6 °F 46.9 °F 30.32 in West 2.3 mph   87% 0.00 in BKN
09:32 51.1 °F 47.4 °F 30.32 in West 1.2 mph   87% 0.00 in BKN
09:37 51.8 °F 47.4 °F 30.32 in West 3.5 mph 3.5 mph 85% 0.00 in BKN
09:42 52.3 °F 47.6 °F 30.32 in West 3.5 mph 3.5 mph 84% 0.00 in BKN
09:47 52.7 °F 48.0 °F 30.31 in West 3.5 mph   84% 0.00 in BKN
09:52 53.3 °F 47.9 °F 30.32 in West 3.5 mph 3.5 mph 82% 0.00 in BKN
09:57 53.8 °F 48.1 °F 30.32 in West 3.5 mph 3.5 mph 81% 0.00 in BKN
10:02 54.2 °F 48.5 °F 30.32 in WNW 3.5 mph   81% 0.00 in BKN
10:08 54.7 °F 48.3 °F 30.32 in WNW 1.2 mph 1.2 mph 79% 0.00 in BKN
10:13 55.2 °F 48.8 °F 30.32 in WNW 2.3 mph   79% 0.00 in BKN
10:18 55.7 °F 48.9 °F 30.32 in WNW 2.3 mph 2.3 mph 78% 0.00 in BKN
10:23 56.7 °F 49.2 °F 30.32 in West 3.5 mph 3.5 mph 76% 0.00 in BKN
10:28 57.5 °F 49.6 °F 30.32 in WNW 4.6 mph 4.6 mph 75% 0.00 in BKN
10:33 58.2 °F 49.6 °F 30.33 in WNW 4.6 mph 4.6 mph 73% 0.00 in BKN
10:38 58.6 °F 49.6 °F 30.33 in WNW 4.6 mph   72% 0.00 in BKN
10:43 59.1 °F 50.1 °F 30.33 in WNW 4.6 mph 4.6 mph 72% 0.00 in BKN
10:48 59.4 °F 49.6 °F 30.33 in WNW 4.6 mph 4.6 mph 70% 0.00 in BKN
10:53 59.8 °F 50.0 °F 30.32 in WNW 3.5 mph 3.5 mph 70% 0.00 in BKN
10:58 60.7 °F 50.5 °F 30.32 in WNW 3.5 mph 3.5 mph 69% 0.00 in BKN
11:03 60.9 °F 49.5 °F 30.32 in West 3.5 mph 3.5 mph 66% 0.00 in BKN
11:08 61.1 °F 49.7 °F 30.33 in WNW 3.5 mph 3.5 mph 66% 0.00 in BKN
11:13 60.9 °F 49.1 °F 30.33 in WNW 4.6 mph 4.6 mph 65% 0.00 in FEW
11:19 60.8 °F 49.4 °F 30.32 in NW 4.6 mph 4.6 mph 66% 0.00 in FEW
11:24 61.2 °F 49.7 °F 30.32 in NW 3.5 mph 3.5 mph 66% 0.00 in FEW
11:29 61.5 °F 50.4 °F 30.32 in WNW 4.6 mph   67% 0.00 in FEW
11:34 61.6 °F 49.7 °F 30.32 in West 4.6 mph 4.6 mph 65% 0.00 in FEW
11:39 61.7 °F 48.5 °F 30.31 in West 6.9 mph 6.9 mph 62% 0.00 in FEW
11:44 61.8 °F 48.6 °F 30.32 in West 6.9 mph 6.9 mph 62% 0.00 in FEW
11:49 62.0 °F 48.4 °F 30.31 in West 6.9 mph 6.9 mph 61% 0.00 in FEW
11:54 62.1 °F 48.9 °F 30.31 in WNW 6.9 mph 6.9 mph 62% 0.00 in FEW
11:59 62.2 °F 47.7 °F 30.31 in WNW 4.6 mph 4.6 mph 59% 0.00 in FEW
12:04 62.5 °F 48.4 °F 30.30 in WNW 4.6 mph 4.6 mph 60% 0.00 in FEW
12:09 62.8 °F 48.3 °F 30.30 in WNW 4.6 mph 4.6 mph 59% 0.00 in FEW
12:14 62.7 °F 47.7 °F 30.30 in NW 4.6 mph 4.6 mph 58% 0.00 in FEW
12:20 62.7 °F 47.7 °F 30.29 in NW 8.1 mph 8.1 mph 58% 0.00 in FEW
12:25 62.8 °F 47.8 °F 30.29 in WNW 1.0 mph 5.0 mph 58% 0.00 in FEW
12:30 63.3 °F 48.7 °F 30.29 in WNW 4.6 mph 4.6 mph 59% 0.00 in FEW
12:35 63.6 °F 47.6 °F 30.29 in WNW 4.6 mph 4.6 mph 56% 0.00 in FEW
12:40 64.1 °F 48.1 °F 30.29 in WNW 2.3 mph 2.3 mph 56% 0.00 in FEW
12:45 64.3 °F 48.3 °F 30.29 in WNW 2.3 mph 2.3 mph 56% 0.00 in FEW
12:50 64.0 °F 47.5 °F 30.29 in WNW 5.8 mph 5.8 mph 55% 0.00 in FEW
12:55 63.9 °F 47.9 °F 30.28 in WNW 5.8 mph 5.8 mph 56% 0.00 in FEW
13:00 64.6 °F 48.1 °F 30.28 in WNW 4.6 mph 4.6 mph 55% 0.00 in FEW
13:05 64.4 °F 47.4 °F 30.28 in West 5.8 mph 5.8 mph 54% 0.00 in SCT
13:10 64.7 °F 48.2 °F 30.28 in WNW 5.8 mph 5.8 mph 55% 0.00 in SCT
13:15 64.9 °F 48.8 °F 30.27 in NW 4.6 mph 4.6 mph 56% 0.00 in SCT
13:21 64.6 °F 47.6 °F 30.27 in NW 4.6 mph 4.6 mph 54% 0.00 in SCT
13:26 64.4 °F 47.4 °F 30.27 in WNW 4.6 mph 4.6 mph 54% 0.00 in SCT
13:31 64.2 °F 47.2 °F 30.27 in WNW 3.5 mph 3.5 mph 54% 0.00 in SCT
13:36 63.8 °F 47.8 °F 30.27 in NW 3.5 mph 3.5 mph 56% 0.00 in SCT
13:41 63.7 °F 47.7 °F 30.26 in NNW 4.6 mph 4.6 mph 56% 0.00 in SCT
13:46 63.7 °F 47.2 °F 30.27 in WNW 4.6 mph 4.6 mph 55% 0.00 in SCT
13:51 63.7 °F 47.2 °F 30.27 in West 3.5 mph 3.5 mph 55% 0.00 in SCT
13:56 63.5 °F 46.6 °F 30.26 in WNW 3.5 mph 3.5 mph 54% 0.00 in SCT
14:01 63.3 °F 46.9 °F 30.26 in NW 4.6 mph 4.6 mph 55% 0.00 in BKN
14:06 63.4 °F 46.9 °F 30.26 in NW 4.6 mph 4.6 mph 55% 0.00 in BKN
14:11 63.5 °F 47.0 °F 30.26 in NW 4.6 mph   55% 0.00 in BKN
14:16 63.7 °F 47.2 °F 30.26 in WNW 3.5 mph 3.5 mph 55% 0.00 in BKN
14:21 63.7 °F 47.2 °F 30.26 in West 3.5 mph 3.5 mph 55% 0.00 in BKN
14:26 63.9 °F 47.4 °F 30.25 in WNW 3.5 mph 3.5 mph 55% 0.00 in BKN
14:32 63.9 °F 47.4 °F 30.25 in West 2.3 mph 2.3 mph 55% 0.00 in BKN
14:37 64.0 °F 47.5 °F 30.24 in NW 2.3 mph   55% 0.00 in BKN
14:42 64.3 °F 46.8 °F 30.24 in NNW 3.5 mph 3.5 mph 53% 0.00 in BKN
14:47 64.5 °F 47.0 °F 30.24 in NW 3.5 mph 3.5 mph 53% 0.00 in BKN
14:52 64.5 °F 47.0 °F 30.24 in WNW 2.3 mph 2.3 mph 53% 0.00 in BKN
14:57 64.5 °F 47.0 °F 30.24 in WNW 2.3 mph 2.3 mph 53% 0.00 in BKN
15:02 64.3 °F 47.3 °F 30.24 in WNW 2.3 mph 2.3 mph 54% 0.00 in BKN
15:07 64.3 °F 47.8 °F 30.24 in NW 2.3 mph   55% 0.00 in BKN
15:12 64.2 °F 47.2 °F 30.24 in NW 2.3 mph 2.3 mph 54% 0.00 in BKN
15:17 64.1 °F 47.1 °F 30.23 in NW 3.5 mph 3.5 mph 54% 0.00 in BKN
15:22 63.9 °F 46.9 °F 30.23 in NW 3.5 mph 3.5 mph 54% 0.00 in BKN
15:27 63.8 °F 46.8 °F 30.23 in NW 3.5 mph 3.5 mph 54% 0.00 in BKN
15:32 63.6 °F 46.6 °F 30.23 in WNW 2.3 mph 2.3 mph 54% 0.00 in BKN
15:37 63.4 °F 46.5 °F 30.23 in WNW 2.3 mph   54% 0.00 in BKN
15:43 63.4 °F 46.5 °F 30.23 in NW 2.3 mph 2.3 mph 54% 0.00 in BKN
15:48 63.2 °F 46.3 °F 30.23 in NW 2.3 mph 2.3 mph 54% 0.00 in BKN
15:53 63.1 °F 46.2 °F 30.23 in NW 3.5 mph 3.5 mph 54% 0.00 in BKN
15:58 63.0 °F 46.6 °F 30.23 in WNW 3.5 mph 3.5 mph 55% 0.00 in BKN
16:03 62.8 °F 46.9 °F 30.23 in WNW 3.5 mph 3.5 mph 56% 0.00 in BKN
16:08 62.7 °F 46.8 °F 30.23 in NW 4.6 mph 4.6 mph 56% 0.00 in BKN
16:13 62.7 °F 46.8 °F 30.23 in WNW 4.6 mph 4.6 mph 56% 0.00 in SCT
16:18 62.5 °F 46.6 °F 30.23 in WNW 2.3 mph 2.3 mph 56% 0.00 in SCT
16:23 62.4 °F 46.5 °F 30.23 in WNW 2.3 mph 2.3 mph 56% 0.00 in SCT
16:29 62.4 °F 47.0 °F 30.24 in WNW 1.2 mph 1.2 mph 57% 0.00 in SCT
16:34 62.3 °F 46.9 °F 30.24 in NW 3.5 mph 3.5 mph 57% 0.00 in SCT
16:39 62.2 °F 46.8 °F 30.24 in NW 3.5 mph 3.5 mph 57% 0.00 in SCT
16:44 62.1 °F 47.1 °F 30.23 in WNW 3.5 mph   58% 0.00 in SCT
16:49 61.8 °F 46.9 °F 30.23 in WNW 3.5 mph   58% 0.00 in SCT
16:54 61.5 °F 47.0 °F 30.24 in WNW 1.2 mph 1.2 mph 59% 0.00 in SCT
16:59 61.4 °F 47.4 °F 30.23 in WNW 1.2 mph   60% 0.00 in SCT
17:04 61.2 °F 47.2 °F 30.24 in WNW 1.2 mph 1.2 mph 60% 0.00 in SCT
17:09 61.0 °F 47.0 °F 30.23 in WNW 1.2 mph   60% 0.00 in SCT
17:14 60.7 °F 47.2 °F 30.23 in WNW 1.2 mph   61% 0.00 in SCT
17:19 60.5 °F 47.4 °F 30.23 in WNW 1.2 mph   62% 0.00 in SCT
17:22 60.3 °F 47.2 °F 30.23 in WNW 1.2 mph   62% 0.00 in SCT
17:27 60.0 °F 47.4 °F 30.23 in WNW 1.2 mph   63% 0.00 in SCT
17:33 59.7 °F 47.5 °F 30.24 in Calm     64% 0.00 in SCT
17:38 59.5 °F 47.7 °F 30.24 in Calm     65% 0.00 in SCT
17:43 59.3 °F 47.5 °F 30.24 in WNW 1.2 mph 1.2 mph 65% 0.00 in SCT
17:48 59.1 °F 47.7 °F 30.24 in WNW 1.2 mph   66% 0.00 in SCT
17:53 58.9 °F 47.6 °F 30.24 in WNW 1.2 mph   66% 0.00 in SCT
17:58 58.7 °F 47.8 °F 30.24 in WNW 1.2 mph   67% 0.00 in SCT
18:03 58.5 °F 48.0 °F 30.24 in Calm     68% 0.00 in SCT
18:08 58.4 °F 47.9 °F 30.25 in Calm     68% 0.00 in SCT
18:13 58.2 °F 47.7 °F 30.25 in Calm     68% 0.00 in SCT
18:17 58.1 °F 48.0 °F 30.25 in Calm     69% 0.00 in SCT
18:22 58.0 °F 47.9 °F 30.25 in Calm     69% 0.00 in SCT
18:27 57.8 °F 47.7 °F 30.25 in Calm     69% 0.00 in SCT
18:32 57.7 °F 48.0 °F 30.25 in Calm     70% 0.00 in SCT
18:37 57.5 °F 47.8 °F 30.26 in Calm     70% 0.00 in SCT
18:42 57.3 °F 48.0 °F 30.25 in Calm     71% 0.00 in SCT
18:47 57.2 °F 47.9 °F 30.25 in Calm     71% 0.00 in SCT
18:52 57.2 °F 48.3 °F 30.25 in Calm     72% 0.00 in SCT
18:57 57.2 °F 48.3 °F 30.25 in Calm     72% 0.00 in SCT
19:02 57.4 °F 48.4 °F 30.25 in Calm     72% 0.00 in BKN
19:08 57.4 °F 48.4 °F 30.25 in Calm     72% 0.00 in BKN
19:13 57.5 °F 48.5 °F 30.25 in Calm     72% 0.00 in BKN
19:18 57.5 °F 48.5 °F 30.26 in Calm     72% 0.00 in BKN
19:23 57.6 °F 48.6 °F 30.26 in Calm     72% 0.00 in BKN
19:28 57.7 °F 48.7 °F 30.26 in Calm     72% 0.00 in BKN
19:33 57.8 °F 48.8 °F 30.26 in Calm     72% 0.00 in BKN
19:38 57.8 °F 49.2 °F 30.26 in Calm     73% 0.00 in BKN
19:43 57.8 °F 49.2 °F 30.25 in Calm     73% 0.00 in BKN
19:48 57.9 °F 49.3 °F 30.26 in Calm     73% 0.00 in BKN
19:53 57.9 °F 49.3 °F 30.26 in Calm     73% 0.00 in BKN
19:58 57.8 °F 49.2 °F 30.26 in Calm     73% 0.00 in BKN
20:03 57.9 °F 49.3 °F 30.26 in WNW 1.2 mph   73% 0.00 in OVC
20:09 57.9 °F 49.3 °F 30.26 in West 1.2 mph   73% 0.00 in OVC
20:14 58.0 °F 49.4 °F 30.27 in West 1.2 mph 1.2 mph 73% 0.00 in OVC
20:19 58.1 °F 49.5 °F 30.27 in WNW 1.2 mph   73% 0.00 in OVC
20:24 58.1 °F 49.5 °F 30.27 in WNW 1.2 mph   73% 0.00 in OVC
20:29 58.2 °F 49.6 °F 30.27 in WNW 1.2 mph 1.2 mph 73% 0.00 in OVC
20:34 58.2 °F 49.6 °F 30.26 in WNW 1.2 mph   73% 0.00 in OVC
20:39 58.1 °F 49.9 °F 30.26 in WNW 1.2 mph   74% 0.00 in OVC
20:44 58.1 °F 49.9 °F 30.26 in WNW 1.2 mph   74% 0.00 in OVC
20:49 58.1 °F 49.9 °F 30.26 in WNW 1.2 mph   74% 0.00 in OVC
20:54 58.0 °F 49.8 °F 30.26 in WNW 1.2 mph 1.2 mph 74% 0.00 in OVC
20:59 57.9 °F 49.7 °F 30.26 in WNW 1.2 mph   74% 0.00 in OVC
21:04 57.7 °F 49.8 °F 30.26 in WNW 1.2 mph 1.2 mph 75% 0.00 in BKN
21:09 57.7 °F 49.8 °F 30.27 in WNW 1.2 mph   75% 0.00 in BKN
21:15 57.7 °F 49.8 °F 30.27 in NW 1.2 mph   75% 0.00 in BKN
21:20 57.8 °F 49.9 °F 30.27 in Calm   1.0 mph 75% 0.00 in BKN
21:25 57.9 °F 50.0 °F 30.26 in Calm   1.0 mph 75% 0.00 in BKN
21:30 57.9 °F 49.7 °F 30.26 in WNW 1.2 mph   74% 0.00 in BKN
21:34 57.9 °F 50.0 °F 30.26 in WNW 1.2 mph   75% 0.00 in BKN
21:39 57.9 °F 49.7 °F 30.26 in NW 3.5 mph   74% 0.00 in BKN
21:44 57.8 °F 49.9 °F 30.26 in WNW 3.5 mph   75% 0.00 in BKN
21:49 57.7 °F 49.8 °F 30.26 in West 1.2 mph   75% 0.00 in BKN
21:54 57.5 °F 49.6 °F 30.26 in West 1.2 mph 1.2 mph 75% 0.00 in BKN
21:59 57.3 °F 49.8 °F 30.26 in WNW 1.2 mph 1.2 mph 76% 0.00 in BKN
22:04 57.1 °F 49.6 °F 30.26 in WNW 1.2 mph 1.2 mph 76% 0.00 in SCT
22:09 57.0 °F 49.5 °F 30.26 in WNW 1.2 mph   76% 0.00 in SCT
22:15 56.9 °F 49.4 °F 30.26 in West 1.2 mph   76% 0.00 in SCT
22:20 56.8 °F 49.7 °F 30.26 in West 1.2 mph   77% 0.00 in SCT
22:25 56.6 °F 49.5 °F 30.26 in West 1.2 mph   77% 0.00 in SCT
22:30 56.4 °F 49.3 °F 30.26 in West 1.2 mph 1.2 mph 77% 0.00 in SCT
22:31 56.4 °F 49.3 °F 30.26 in West 1.2 mph 1.2 mph 77% 0.00 in SCT
22:36 56.3 °F 49.2 °F 30.26 in West 1.2 mph 1.2 mph 77% 0.00 in SCT
22:41 56.1 °F 49.3 °F 30.25 in West 1.2 mph 1.2 mph 78% 0.00 in SCT
22:46 56.0 °F 49.2 °F 30.25 in West 1.2 mph   78% 0.00 in SCT
22:51 55.8 °F 49.0 °F 30.26 in West 1.2 mph   78% 0.00 in SCT
22:56 55.7 °F 48.9 °F 30.26 in West 1.2 mph   78% 0.00 in SCT
23:01 55.5 °F 48.8 °F 30.25 in West 1.2 mph   78% 0.00 in SCT
23:07 55.4 °F 49.0 °F 30.26 in West 1.2 mph   79% 0.00 in SCT
23:12 55.2 °F 48.8 °F 30.26 in West 1.2 mph   79% 0.00 in SCT
23:17 55.1 °F 48.7 °F 30.26 in West 1.2 mph   79% 0.00 in SCT
23:22 55.0 °F 48.6 °F 30.26 in Calm     79% 0.00 in SCT
23:27 55.1 °F 48.7 °F 30.26 in Calm     79% 0.00 in SCT
23:32 55.2 °F 48.8 °F 30.26 in Calm     79% 0.00 in SCT
23:37 55.2 °F 48.8 °F 30.26 in Calm     79% 0.00 in SCT
23:42 55.3 °F 48.9 °F 30.26 in Calm     79% 0.00 in SCT
23:47 55.4 °F 48.7 °F 30.26 in Calm     78% 0.00 in SCT
23:52 55.5 °F 48.8 °F 30.26 in West 1.2 mph   78% 0.00 in SCT
23:57 55.5 °F 48.8 °F 30.25 in West 1.2 mph   78% 0.00 in SCT
Piedmont Bend
Compliments of Weather Underground - 2 mb